Terminal Aerodrome Forecast
Issued by NWS

Current Version | Previous Version | Graphics & Text | Print | Product List | Glossary On
Versions: 1 2 3 4 5 6 7 8 9 10 11 12 13 14 15 16 17 18 19 20 21 22 23 24 25 26 27 28 29 30
000
FTUS41 KRNK 311729
TAFLWB
TAF
KLWB 311729Z 3118/0118 VRB03KT P6SM -SHRA BKN040 BKN120
     FM010200 00000KT P6SM SCT060 SCT120
     FM010700 00000KT 1/4SM FG OVC001
     FM011400 VRB03KT P6SM SCT035=

USA.gov is the U.S. government's official web portal to all federal, state and local government web resources and services.